createdAt,value
2018-03-19T00:00:51.629Z,2.3
2018-03-19T00:01:54.137Z,2.2
2018-03-19T00:02:57.000Z,2.2
2018-03-19T00:03:59.692Z,2.8
2018-03-19T00:05:02.257Z,2.5
2018-03-19T00:06:04.802Z,2.6
2018-03-19T00:07:12.327Z,2.3
2018-03-19T00:08:14.885Z,2.5
2018-03-19T00:09:17.383Z,2.2
2018-03-19T00:10:20.002Z,2.3
2018-03-19T00:11:22.524Z,2.7
2018-03-19T00:12:25.019Z,2.3
2018-03-19T00:13:27.498Z,1.9
2018-03-19T00:14:30.924Z,1.9
2018-03-19T00:15:33.346Z,1.7
2018-03-19T00:16:35.818Z,1.5
2018-03-19T00:17:38.325Z,1.5
2018-03-19T00:18:45.247Z,1.6
2018-03-19T00:19:47.931Z,1.7
2018-03-19T00:20:50.593Z,1.6
2018-03-19T00:21:53.228Z,1.6
2018-03-19T00:22:55.819Z,1
2018-03-19T00:23:58.327Z,1.5
2018-03-19T00:25:00.872Z,1.4
2018-03-19T00:26:03.341Z,1.4
2018-03-19T00:27:05.879Z,1.4
2018-03-19T00:28:09.577Z,1.4
2018-03-19T00:29:12.229Z,1.6
2018-03-19T00:30:14.710Z,1.3
2018-03-19T00:31:17.188Z,1.1
2018-03-19T00:32:19.742Z,1.1
2018-03-19T00:33:22.277Z,1.5
2018-03-19T00:34:24.852Z,1.5
2018-03-19T00:35:27.424Z,1.3
2018-03-19T00:36:29.942Z,1.3
2018-03-19T00:37:32.442Z,1.5
2018-03-19T00:38:34.976Z,1.4
2018-03-19T00:39:37.487Z,1.7
2018-03-19T00:40:40.010Z,1.7
2018-03-19T00:41:42.439Z,1.8
2018-03-19T00:42:44.979Z,1.6
2018-03-19T00:43:47.375Z,1.4
2018-03-19T00:44:49.905Z,1.2
2018-03-19T00:45:52.406Z,1.3
2018-03-19T00:46:54.966Z,1.5
2018-03-19T00:47:57.492Z,1.8
2018-03-19T00:49:03.310Z,1.5
2018-03-19T00:50:05.812Z,1.4
2018-03-19T00:51:08.859Z,1.6
2018-03-19T00:52:11.445Z,1.3
2018-03-19T00:53:14.513Z,1.2
2018-03-19T00:54:17.098Z,1.2
2018-03-19T00:55:19.574Z,1.5
2018-03-19T00:56:22.093Z,1.5
2018-03-19T00:57:24.564Z,1.6
2018-03-19T00:58:27.096Z,1.3
2018-03-19T00:59:29.804Z,1
2018-03-19T01:00:32.220Z,0.6
2018-03-19T01:01:34.654Z,1
2018-03-19T01:02:37.099Z,1
2018-03-19T01:03:39.521Z,0.8
2018-03-19T01:04:42.842Z,1
2018-03-19T01:05:45.296Z,1
2018-03-19T01:06:47.794Z,1.1
2018-03-19T01:07:50.325Z,1.3
2018-03-19T01:08:52.874Z,1.2
2018-03-19T01:09:55.335Z,0.9
2018-03-19T01:10:57.835Z,1
2018-03-19T01:12:00.455Z,0.9
2018-03-19T01:13:02.992Z,0.4
2018-03-19T01:14:05.503Z,0.8
2018-03-19T01:15:07.957Z,1.1
2018-03-19T01:16:10.434Z,0.8
2018-03-19T01:17:12.863Z,0.9
2018-03-19T01:18:15.359Z,0.7
2018-03-19T01:19:17.762Z,0.9
2018-03-19T01:20:20.313Z,1
2018-03-19T01:21:22.808Z,1.1
2018-03-19T01:22:25.445Z,0.9
2018-03-19T01:23:28.028Z,1
2018-03-19T01:24:30.556Z,0.8
2018-03-19T01:25:33.021Z,0.8
2018-03-19T01:26:35.458Z,0.7
2018-03-19T01:27:37.979Z,0.8
2018-03-19T01:28:40.540Z,0.5
2018-03-19T01:29:42.983Z,0.8
2018-03-19T01:30:45.480Z,0.8
2018-03-19T01:31:47.998Z,0.5
2018-03-19T01:32:55.530Z,0.9
2018-03-19T01:33:58.088Z,0.9
2018-03-19T01:35:00.591Z,0.8
2018-03-19T01:36:03.116Z,0.6
2018-03-19T01:37:05.567Z,0.3
2018-03-19T01:38:08.032Z,0.2
2018-03-19T01:39:10.715Z,0.3
2018-03-19T01:40:13.216Z,0.6
2018-03-19T01:41:15.684Z,0.6
2018-03-19T01:42:18.169Z,0.9
2018-03-19T01:43:21.500Z,0.6
2018-03-19T01:44:23.964Z,0.7
2018-03-19T01:45:26.472Z,1.1
2018-03-19T01:46:28.992Z,0.4
2018-03-19T01:47:31.478Z,0.2
2018-03-19T01:48:33.859Z,0.6
2018-03-19T01:49:36.805Z,0.7
2018-03-19T01:50:39.423Z,0.9
2018-03-19T01:51:41.971Z,0.7
2018-03-19T01:52:44.405Z,0.4
2018-03-19T01:53:46.827Z,0.8
2018-03-19T01:54:49.266Z,0.3
2018-03-19T01:55:51.756Z,0.4
2018-03-19T01:56:54.135Z,0.7
2018-03-19T01:57:56.759Z,0.2
2018-03-19T01:58:59.293Z,0.8
2018-03-19T02:00:01.839Z,0.7
2018-03-19T02:01:04.274Z,0.6
2018-03-19T02:02:06.775Z,0.5
2018-03-19T02:03:09.278Z,1.3
2018-03-19T02:04:11.841Z,0.7
2018-03-19T02:05:14.380Z,0.8
2018-03-19T02:06:16.906Z,0.6
2018-03-19T02:07:19.397Z,0.4
2018-03-19T02:08:22.202Z,0.7
2018-03-19T02:09:24.644Z,0.5
2018-03-19T02:10:27.154Z,-0.1
2018-03-19T02:11:29.697Z,0.3
2018-03-19T02:12:32.187Z,0.1
2018-03-19T02:13:34.634Z,0.3
2018-03-19T02:14:37.101Z,0.6
2018-03-19T02:15:39.528Z,0.3
2018-03-19T02:16:42.136Z,-0.1
2018-03-19T02:17:44.823Z,0.4
2018-03-19T02:18:47.273Z,0.1
2018-03-19T02:19:49.727Z,0
2018-03-19T02:20:52.364Z,0
2018-03-19T02:21:54.831Z,0.4
2018-03-19T02:22:57.320Z,-0.1
2018-03-19T02:23:59.799Z,-0.2
2018-03-19T02:25:02.388Z,0.1
2018-03-19T02:26:04.774Z,-0.3
2018-03-19T02:27:07.278Z,-0.4
2018-03-19T02:28:10.538Z,-0.1
2018-03-19T02:29:13.138Z,0.1
2018-03-19T02:30:15.594Z,0
2018-03-19T02:31:18.045Z,-0.1
2018-03-19T02:32:20.528Z,-0.4
2018-03-19T02:33:25.788Z,-0.4
2018-03-19T02:34:31.291Z,0.3
2018-03-19T02:35:33.746Z,0.4
2018-03-19T02:36:36.178Z,0.5
2018-03-19T02:37:38.654Z,0.4
2018-03-19T02:38:41.146Z,0
2018-03-19T02:39:43.544Z,0.1
2018-03-19T02:40:45.943Z,-0.1
2018-03-19T02:41:48.404Z,0.4
2018-03-19T02:42:50.938Z,0.2
2018-03-19T02:43:53.407Z,0.2
2018-03-19T02:44:55.895Z,0.1
2018-03-19T02:45:58.341Z,0.1
2018-03-19T02:47:00.936Z,-0.1
2018-03-19T02:48:04.219Z,0.2
2018-03-19T02:49:06.627Z,-0.2
2018-03-19T02:50:09.898Z,-0.2
2018-03-19T02:51:12.388Z,-0.2
2018-03-19T02:52:14.830Z,0.1
2018-03-19T02:53:17.256Z,-0.1
2018-03-19T02:54:19.683Z,-0.2
2018-03-19T02:55:22.174Z,0
2018-03-19T02:56:24.650Z,0.2
2018-03-19T02:57:28.282Z,-0.1
2018-03-19T02:58:30.813Z,0
2018-03-19T02:59:33.255Z,0
2018-03-19T03:00:35.725Z,-0.1
2018-03-19T03:01:38.839Z,-0.2
2018-03-19T03:02:41.288Z,-0.2
2018-03-19T03:03:43.731Z,-0.1
2018-03-19T03:04:46.169Z,0.1
2018-03-19T03:05:48.756Z,0
2018-03-19T03:06:51.324Z,0.1
2018-03-19T03:07:53.794Z,-0.7
2018-03-19T03:08:56.351Z,-0.4
2018-03-19T03:09:59.359Z,-0.2
2018-03-19T03:11:01.878Z,-0.5
2018-03-19T03:12:04.450Z,-0.8
2018-03-19T03:13:07.168Z,-0.6
2018-03-19T03:14:09.955Z,-0.4
2018-03-19T03:15:12.387Z,-0.4
2018-03-19T03:16:14.802Z,-0.6
2018-03-19T03:17:17.247Z,-0.3
2018-03-19T03:18:19.671Z,-0.8
2018-03-19T03:19:22.339Z,-1.1
2018-03-19T03:20:25.102Z,-1.1
2018-03-19T03:21:27.648Z,-0.5
2018-03-19T03:22:30.115Z,-0.6
2018-03-19T03:23:32.707Z,-1
2018-03-19T03:24:35.145Z,-1
2018-03-19T03:25:37.625Z,-0.9
2018-03-19T03:26:40.027Z,-1.4
2018-03-19T03:27:42.505Z,-1.2
2018-03-19T03:28:44.929Z,-1.2
2018-03-19T03:29:47.370Z,-0.9
2018-03-19T03:30:50.430Z,-0.8
2018-03-19T03:31:53.545Z,-1
2018-03-19T03:32:56.319Z,-1
2018-03-19T03:33:58.894Z,-1.1
2018-03-19T03:35:01.517Z,-0.8
2018-03-19T03:36:04.076Z,-0.6
2018-03-19T03:37:06.606Z,-0.6
2018-03-19T03:38:09.117Z,-0.7
2018-03-19T03:39:11.553Z,-0.2
2018-03-19T03:40:14.031Z,-0.7
2018-03-19T03:41:16.485Z,-0.5
2018-03-19T03:42:18.926Z,-0.9
2018-03-19T03:43:21.611Z,-1.2
2018-03-19T03:44:24.080Z,-1.3
2018-03-19T03:45:26.647Z,-1
2018-03-19T03:46:29.170Z,-1.1
2018-03-19T03:47:31.724Z,-1.4
2018-03-19T03:48:34.249Z,-1.1
2018-03-19T03:49:36.746Z,-1.2
2018-03-19T03:50:39.206Z,-0.9
2018-03-19T03:51:41.676Z,-0.7
2018-03-19T03:52:44.080Z,-1
2018-03-19T03:53:46.487Z,-1.6
2018-03-19T03:54:48.888Z,-1.3
2018-03-19T03:55:51.965Z,-1.5
2018-03-19T03:56:54.438Z,-1
2018-03-19T03:57:56.898Z,-1
2018-03-19T03:58:59.297Z,-1.3
2018-03-19T04:00:01.921Z,-0.3
2018-03-19T04:01:04.453Z,-1.1
2018-03-19T04:02:07.171Z,-0.6
2018-03-19T04:03:09.702Z,-0.7
2018-03-19T04:04:12.226Z,-1.1
2018-03-19T04:05:14.709Z,-1.4
2018-03-19T04:06:17.214Z,-1.5
2018-03-19T04:07:19.675Z,-1.1
2018-03-19T04:08:22.232Z,-1.4
2018-03-19T04:09:24.727Z,-1.6
2018-03-19T04:10:27.181Z,-1.8
2018-03-19T04:11:29.779Z,-2
2018-03-19T04:12:32.272Z,-1.9
2018-03-19T04:13:34.791Z,-1.6
2018-03-19T04:14:37.279Z,-1.4
2018-03-19T04:15:39.757Z,-1.5
2018-03-19T04:16:42.261Z,-1.2
2018-03-19T04:17:44.767Z,-1.1
2018-03-19T04:18:47.240Z,-1.1
2018-03-19T04:19:49.639Z,-1.1
2018-03-19T04:20:52.106Z,-0.7
2018-03-19T04:21:54.552Z,-1
2018-03-19T04:22:57.104Z,-0.8
2018-03-19T04:23:59.558Z,-1
2018-03-19T04:25:02.118Z,-0.7
2018-03-19T04:26:04.613Z,-0.9
2018-03-19T04:27:07.091Z,-1.2
2018-03-19T04:28:09.895Z,-1
2018-03-19T04:29:12.365Z,-1.3
2018-03-19T04:30:14.828Z,-1.3
2018-03-19T04:31:17.222Z,-1.3
2018-03-19T04:32:19.698Z,-1
2018-03-19T04:33:22.186Z,-1.3
2018-03-19T04:34:24.840Z,-1.2
2018-03-19T04:35:27.344Z,-0.8
2018-03-19T04:36:29.869Z,-1.1
2018-03-19T04:37:32.407Z,-1.3
2018-03-19T04:38:34.897Z,-1.4
2018-03-19T04:39:37.290Z,-1.3
2018-03-19T04:40:39.726Z,-1.3
2018-03-19T04:41:42.290Z,-1.1
2018-03-19T04:42:44.655Z,-1.2
2018-03-19T04:43:47.045Z,-1.3
2018-03-19T04:44:49.453Z,-1.5
2018-03-19T04:45:52.034Z,-1.4
2018-03-19T04:46:54.463Z,-1.4
2018-03-19T04:47:56.885Z,-1.7
2018-03-19T04:49:00.982Z,-1.9
2018-03-19T04:50:03.848Z,-1.8
2018-03-19T04:51:06.309Z,-1.6
2018-03-19T04:52:08.934Z,-1.9
2018-03-19T04:53:11.842Z,-2
2018-03-19T04:54:14.377Z,-2
2018-03-19T04:55:16.935Z,-1.6
2018-03-19T04:56:19.426Z,-1.7
2018-03-19T04:57:21.914Z,-1.2
2018-03-19T04:58:24.366Z,-0.8
2018-03-19T04:59:26.892Z,-1.2
2018-03-19T05:00:29.428Z,-1.3
2018-03-19T05:01:31.925Z,-1.3
2018-03-19T05:02:34.453Z,-1.1
2018-03-19T05:03:44.569Z,-1
2018-03-19T05:04:47.041Z,-1.2
2018-03-19T05:05:49.502Z,-1.3
2018-03-19T05:06:52.143Z,-1.5
2018-03-19T05:07:54.692Z,-1.3
2018-03-19T05:08:57.299Z,-1.4
2018-03-19T05:10:00.796Z,-1.1
2018-03-19T05:11:03.414Z,-1.3
2018-03-19T05:12:06.026Z,-1.4
2018-03-19T05:13:08.673Z,-1.5
2018-03-19T05:14:11.268Z,-1.6
2018-03-19T05:15:13.891Z,-1.7
2018-03-19T05:16:16.456Z,-1.6
2018-03-19T05:17:19.134Z,-1.5
2018-03-19T05:18:21.697Z,-1.6
2018-03-19T05:19:24.356Z,-1.3
2018-03-19T05:20:26.970Z,-1.6
2018-03-19T05:21:29.470Z,-1.4
2018-03-19T05:22:32.111Z,-1.2
2018-03-19T05:23:34.670Z,-1.5
2018-03-19T05:24:37.286Z,-1.9
2018-03-19T05:25:40.108Z,-1.9
2018-03-19T05:26:42.906Z,-1.8
2018-03-19T05:27:45.430Z,-1.9
2018-03-19T05:28:48.075Z,-1.7
2018-03-19T05:29:50.503Z,-1.8
2018-03-19T05:30:53.122Z,-1.6
2018-03-19T05:31:55.659Z,-1.7
2018-03-19T05:32:58.157Z,-1.9
2018-03-19T05:34:00.613Z,-2
2018-03-19T05:35:03.309Z,-2
2018-03-19T05:36:06.546Z,-1.9
2018-03-19T05:37:09.113Z,-1.7
2018-03-19T05:38:11.681Z,-2.1
2018-03-19T05:39:14.238Z,-2
2018-03-19T05:40:19.754Z,-1.9
2018-03-19T05:41:24.983Z,-1.9
2018-03-19T05:42:28.524Z,-2.1
2018-03-19T05:43:31.264Z,-1.6
2018-03-19T05:44:33.832Z,-1.5
2018-03-19T05:45:36.363Z,-1.4
2018-03-19T05:46:38.904Z,-2
2018-03-19T05:47:41.518Z,-1.7
2018-03-19T05:48:44.112Z,-1.5
2018-03-19T05:49:46.751Z,-1.4
2018-03-19T05:50:49.562Z,-1.3
2018-03-19T05:51:52.141Z,-1.8
2018-03-19T05:52:54.802Z,-1.1
2018-03-19T05:53:57.469Z,-1.2
2018-03-19T05:55:00.101Z,-1
2018-03-19T05:56:02.799Z,-1
2018-03-19T05:57:10.954Z,-0.9
2018-03-19T05:58:13.925Z,-0.6
2018-03-19T05:59:16.580Z,-1
2018-03-19T06:00:19.274Z,-1
2018-03-19T06:01:26.736Z,-0.8
2018-03-19T06:02:29.967Z,-0.9
2018-03-19T06:03:32.637Z,-1.2
2018-03-19T06:04:35.218Z,-0.7
2018-03-19T06:05:51.013Z,-0.3
2018-03-19T06:06:53.704Z,0.2
2018-03-19T06:07:57.027Z,0
2018-03-19T06:08:59.531Z,-0.3
2018-03-19T06:10:02.133Z,-0.1
2018-03-19T06:11:04.684Z,-0.4
2018-03-19T06:12:07.421Z,-0.3
2018-03-19T06:13:10.821Z,-0.3
2018-03-19T06:14:13.394Z,-0.2
2018-03-19T06:15:16.119Z,0.2
2018-03-19T06:16:18.666Z,0.2
2018-03-19T06:17:21.318Z,0
2018-03-19T06:18:23.999Z,0.1
2018-03-19T06:19:26.509Z,0.6
2018-03-19T06:20:29.031Z,0.6
2018-03-19T06:21:31.806Z,0.4
2018-03-19T06:22:34.514Z,0.9
2018-03-19T06:23:37.290Z,0.9
2018-03-19T06:24:39.949Z,0.9
2018-03-19T06:25:43.179Z,1.3
2018-03-19T06:26:46.042Z,1.3
2018-03-19T06:27:48.845Z,1.2
2018-03-19T06:28:51.577Z,1.3
2018-03-19T06:29:54.362Z,1.5
2018-03-19T06:30:56.868Z,1.7
2018-03-19T06:31:59.556Z,1.6
2018-03-19T06:33:02.451Z,1.8
2018-03-19T06:34:05.018Z,2.3
2018-03-19T06:35:07.679Z,1.6
2018-03-19T06:36:10.247Z,2.1
2018-03-19T06:37:13.497Z,2
2018-03-19T06:38:16.405Z,2.2
2018-03-19T06:39:18.980Z,2.3
2018-03-19T06:40:21.949Z,2.3
2018-03-19T06:41:24.706Z,2.4
2018-03-19T06:42:27.387Z,2.6
2018-03-19T06:43:29.964Z,2.7
2018-03-19T06:44:33.033Z,2.7
2018-03-19T06:45:35.723Z,2.8
2018-03-19T06:46:38.341Z,2.8
2018-03-19T06:47:42.142Z,2.9
2018-03-19T06:48:44.873Z,3
2018-03-19T06:49:48.132Z,3.1
2018-03-19T06:50:50.775Z,3.5
2018-03-19T06:51:54.015Z,3.5
2018-03-19T06:52:56.727Z,3.4
2018-03-19T06:54:01.251Z,3.5
2018-03-19T06:55:05.307Z,3.4
2018-03-19T06:56:08.052Z,3.5
2018-03-19T06:57:11.366Z,3.6
2018-03-19T06:58:14.904Z,3.7
2018-03-19T06:59:17.944Z,3.7
2018-03-19T07:00:20.688Z,3.9
2018-03-19T07:01:24.533Z,3.8
2018-03-19T07:02:27.303Z,3.8
2018-03-19T07:03:30.904Z,4.2
2018-03-19T07:04:33.804Z,4.1
2018-03-19T07:05:36.954Z,3.9
2018-03-19T07:06:39.669Z,4.9
2018-03-19T07:07:42.479Z,6.1
2018-03-19T07:08:45.203Z,7.6
2018-03-19T07:09:47.998Z,8
2018-03-19T07:10:50.702Z,8.3
2018-03-19T07:11:53.443Z,8.4
2018-03-19T07:12:56.081Z,8.5
2018-03-19T07:13:58.949Z,8.6
2018-03-19T07:15:02.254Z,8.7
2018-03-19T07:16:04.924Z,9.1
2018-03-19T07:17:07.799Z,9
2018-03-19T07:18:10.520Z,9.2
2018-03-19T07:19:13.300Z,9.4
2018-03-19T07:20:15.908Z,9.4
2018-03-19T07:21:22.009Z,9.5
2018-03-19T07:22:24.971Z,9.9
2018-03-19T07:23:28.630Z,9.9
2018-03-19T07:24:31.283Z,9.9
2018-03-19T07:25:34.191Z,10
2018-03-19T07:26:36.946Z,10.3
2018-03-19T07:27:39.967Z,10.3
2018-03-19T07:28:43.360Z,10.5
2018-03-19T07:29:47.202Z,10.8
2018-03-19T07:30:50.520Z,10.9
2018-03-19T07:31:53.550Z,11.1
2018-03-19T07:32:57.259Z,11.1
2018-03-19T07:34:01.195Z,11.1
2018-03-19T07:35:05.043Z,11.6
2018-03-19T07:36:08.076Z,11.8
2018-03-19T07:37:12.044Z,11.9
2018-03-19T07:38:14.987Z,12.1
2018-03-19T07:39:17.610Z,12.4
2018-03-19T07:40:20.941Z,12.7
2018-03-19T07:41:24.311Z,13
2018-03-19T07:42:33.832Z,13.1
2018-03-19T07:43:36.797Z,13.3
2018-03-19T07:44:39.465Z,13.3
2018-03-19T07:45:42.239Z,13.4
2018-03-19T07:46:45.151Z,13.5
2018-03-19T07:47:47.897Z,13.8
2018-03-19T07:48:50.508Z,13.9
2018-03-19T07:49:53.655Z,14
2018-03-19T07:50:56.856Z,14.3
2018-03-19T07:51:59.973Z,14.5
2018-03-19T07:53:03.518Z,14.6
2018-03-19T07:54:06.222Z,14.5
2018-03-19T07:55:09.027Z,14.5
2018-03-19T07:56:11.786Z,14.9
2018-03-19T07:57:14.954Z,15.1
2018-03-19T07:58:17.771Z,15.2
2018-03-19T07:59:20.618Z,15.2
2018-03-19T08:00:23.452Z,15.5
2018-03-19T08:01:27.372Z,15.5
2018-03-19T08:02:30.869Z,15.5
2018-03-19T08:03:33.857Z,15.5
2018-03-19T08:04:36.430Z,15.6
2018-03-19T08:05:39.127Z,15.9
2018-03-19T08:06:41.958Z,15.9
2018-03-19T08:07:44.640Z,16
2018-03-19T08:08:47.298Z,16.1
2018-03-19T08:09:50.204Z,16.5
2018-03-19T08:10:53.074Z,16.7
2018-03-19T08:11:55.948Z,16.6
2018-03-19T08:12:58.896Z,16.5
2018-03-19T08:14:02.315Z,16.8
2018-03-19T08:15:07.341Z,17
2018-03-19T08:16:10.037Z,16.8
2018-03-19T08:17:13.192Z,16.6
2018-03-19T08:18:15.832Z,16.7
2018-03-19T08:19:18.550Z,17
2018-03-19T08:20:21.432Z,17
2018-03-19T08:21:24.279Z,16.8
2018-03-19T08:22:31.790Z,16.6
2018-03-19T08:23:34.768Z,17
2018-03-19T08:24:37.445Z,17
2018-03-19T08:25:40.104Z,17.3
2018-03-19T08:26:42.958Z,17.1
2018-03-19T08:27:45.546Z,17
2018-03-19T08:28:48.184Z,16.8
2018-03-19T08:29:50.844Z,16.9
2018-03-19T08:30:53.787Z,17
2018-03-19T08:32:02.476Z,17.1
2018-03-19T08:33:06.871Z,16.9
2018-03-19T08:34:09.775Z,16.7
2018-03-19T08:35:12.721Z,16.8
2018-03-19T08:36:15.846Z,16.7
2018-03-19T08:37:19.083Z,16.6
2018-03-19T08:38:22.436Z,16.6
2018-03-19T08:39:25.486Z,16.6
2018-03-19T08:40:28.306Z,16.6
2018-03-19T08:41:31.193Z,16.6
2018-03-19T08:42:34.254Z,16.5
2018-03-19T08:43:36.895Z,16.4
2018-03-19T08:44:39.877Z,16.4
2018-03-19T08:45:42.994Z,16.2
2018-03-19T08:46:45.856Z,16.2
2018-03-19T08:47:48.564Z,16
2018-03-19T08:48:59.684Z,15.8
2018-03-19T08:50:02.597Z,15.9
2018-03-19T08:51:05.599Z,15.9
2018-03-19T08:52:08.180Z,15.7
2018-03-19T08:53:10.869Z,15.6
2018-03-19T08:54:13.709Z,15.7
2018-03-19T08:55:16.494Z,15.6
2018-03-19T08:56:19.287Z,15.5
2018-03-19T08:57:22.298Z,15.4
2018-03-19T08:58:25.072Z,15.5
2018-03-19T08:59:28.010Z,15.4
2018-03-19T09:00:30.887Z,15.5
2018-03-19T09:01:34.113Z,15.3
2018-03-19T09:02:36.881Z,15.4
2018-03-19T09:03:39.500Z,15.5
2018-03-19T09:04:42.398Z,15.6
2018-03-19T09:05:45.463Z,15.4
2018-03-19T09:06:48.181Z,15.4
2018-03-19T09:07:50.933Z,15.4
2018-03-19T09:08:53.742Z,15.4
2018-03-19T09:09:56.464Z,15.5
2018-03-19T09:10:59.190Z,15.6
2018-03-19T09:12:02.485Z,15.6
2018-03-19T09:13:05.957Z,15.7
2018-03-19T09:14:09.187Z,15.7
2018-03-19T09:15:12.790Z,15.8
2018-03-19T09:16:15.976Z,15.7
2018-03-19T09:17:18.881Z,15.8
2018-03-19T09:18:24.058Z,15.7
2018-03-19T09:19:26.855Z,15.5
2018-03-19T09:20:29.814Z,15.5
2018-03-19T09:21:33.958Z,15.5
2018-03-19T09:22:36.904Z,15.5
2018-03-19T09:23:39.728Z,15.6
2018-03-19T09:24:42.551Z,15.5
2018-03-19T09:25:45.511Z,15.5
2018-03-19T09:26:48.685Z,15.4
2018-03-19T09:27:51.818Z,15.5
2018-03-19T09:28:55.046Z,15.5
2018-03-19T09:29:58.409Z,15.6
2018-03-19T09:31:01.671Z,15.6
2018-03-19T09:32:05.283Z,15.4
2018-03-19T09:33:08.869Z,15.4
2018-03-19T09:34:11.838Z,15.4
2018-03-19T09:36:30.632Z,15.5
2018-03-19T12:32:20.330Z,14.8
2018-03-19T12:33:23.347Z,14.8
2018-03-19T12:34:26.932Z,14.9
2018-03-19T12:35:29.784Z,15
2018-03-19T12:36:33.694Z,15
2018-03-19T12:38:49.041Z,14.6
2018-03-19T12:39:51.820Z,14.6
2018-03-19T12:40:54.830Z,14.9
2018-03-19T12:41:57.709Z,14.8
2018-03-19T12:43:00.507Z,14.9
2018-03-19T12:44:04.265Z,14.8
2018-03-19T12:45:07.526Z,14.7
2018-03-19T12:46:10.234Z,14.8
2018-03-19T12:47:12.857Z,15
2018-03-19T12:48:15.696Z,15.1
2018-03-19T12:49:18.612Z,15.1
2018-03-19T12:50:21.189Z,15.1
2018-03-19T12:51:23.977Z,14.9
2018-03-19T12:52:26.680Z,15.1
2018-03-19T12:53:29.298Z,15.1
2018-03-19T12:54:31.987Z,15
2018-03-19T12:55:34.793Z,15
2018-03-19T12:56:37.847Z,14.8
2018-03-19T12:57:40.616Z,15
2018-03-19T12:58:44.403Z,14.9
2018-03-19T12:59:46.936Z,15
2018-03-19T13:00:49.503Z,15.2
2018-03-19T13:01:52.760Z,15.1
2018-03-19T13:02:56.604Z,15
2018-03-19T13:03:59.255Z,15.1
2018-03-19T13:05:02.690Z,15.2
2018-03-19T13:06:06.404Z,15.1
2018-03-19T13:07:09.217Z,15.2
2018-03-19T13:08:11.786Z,14.9
2018-03-19T13:09:14.633Z,14.8
2018-03-19T13:10:17.175Z,14.9
2018-03-19T13:11:19.754Z,14.8
2018-03-19T13:12:22.672Z,14.8
2018-03-19T13:13:25.539Z,15
2018-03-19T13:14:28.330Z,15
2018-03-19T13:15:30.947Z,15
2018-03-19T13:16:33.740Z,14.9
2018-03-19T13:17:44.644Z,15.1
2018-03-19T13:18:47.478Z,14.9
2018-03-19T13:19:50.235Z,15.2
2018-03-19T13:20:52.950Z,15.1
2018-03-19T13:21:55.754Z,15.1
2018-03-19T13:22:58.401Z,15
2018-03-19T13:24:01.179Z,14.9
2018-03-19T13:25:04.080Z,15
2018-03-19T13:26:06.841Z,15.1
2018-03-19T13:27:09.817Z,15
2018-03-19T13:28:12.726Z,14.9
2018-03-19T13:29:15.542Z,14.9
2018-03-19T13:30:18.198Z,14.7
2018-03-19T13:31:20.850Z,14.7
2018-03-19T13:32:23.507Z,14.6
2018-03-19T13:33:26.208Z,14.6
2018-03-19T13:34:28.875Z,14.7
2018-03-19T13:35:32.853Z,14.6
2018-03-19T13:36:35.790Z,14.7
2018-03-19T13:37:38.484Z,14.7
2018-03-19T13:38:41.157Z,14.7
2018-03-19T13:39:43.730Z,14.7
2018-03-19T13:40:46.689Z,14.6
2018-03-19T13:41:49.677Z,14.7
2018-03-19T13:42:52.237Z,14.6
2018-03-19T13:43:54.848Z,14.6
2018-03-19T13:44:57.523Z,14.5
2018-03-19T13:46:00.141Z,14.7
2018-03-19T13:47:02.811Z,14.7
2018-03-19T13:49:16.231Z,15.1
2018-03-19T13:50:19.217Z,15.3
2018-03-19T13:51:21.850Z,15.3
2018-03-19T13:52:24.682Z,15.4
2018-03-19T13:53:27.348Z,15.4
2018-03-19T13:54:29.883Z,15.5
2018-03-19T13:55:32.571Z,15.6
2018-03-19T13:56:35.263Z,15.7
2018-03-19T13:57:38.086Z,15.8
2018-03-19T13:58:40.959Z,15.9
2018-03-19T13:59:43.761Z,16
2018-03-19T14:00:46.565Z,16.3
2018-03-19T14:01:49.177Z,16.5
2018-03-19T14:02:51.938Z,16.6
2018-03-19T14:03:54.812Z,16.5
2018-03-19T14:04:57.563Z,16.7
2018-03-19T14:06:00.264Z,16.7
2018-03-19T14:07:03.279Z,16.8
2018-03-19T14:08:06.242Z,16.8
2018-03-19T14:09:09.080Z,16.7
2018-03-19T14:10:11.757Z,16.8
2018-03-19T14:11:14.470Z,16.9
2018-03-19T14:12:17.573Z,17
2018-03-19T14:13:20.163Z,17
2018-03-19T14:14:22.787Z,16.9
2018-03-19T14:15:25.496Z,16.9
2018-03-19T14:16:28.140Z,17
2018-03-19T14:17:30.733Z,17
2018-03-19T14:18:33.342Z,16.8
2018-03-19T14:19:36.123Z,16.7
2018-03-19T14:20:38.844Z,16.7
2018-03-19T14:21:41.786Z,16.8
2018-03-19T14:22:44.565Z,16.7
2018-03-19T14:23:47.447Z,16.6
2018-03-19T14:24:50.112Z,16.6
2018-03-19T14:25:52.886Z,16.5
2018-03-19T14:26:55.764Z,16.6
2018-03-19T14:27:58.535Z,16.6
2018-03-19T14:29:01.776Z,16.3
2018-03-19T14:30:05.203Z,16.1
2018-03-19T14:31:08.310Z,16.1
2018-03-19T14:32:11.018Z,15.9
2018-03-19T14:33:13.996Z,15.9
2018-03-19T14:34:16.948Z,15.8
2018-03-19T14:35:19.698Z,15.8
2018-03-19T14:36:22.387Z,15.7
2018-03-19T14:37:25.978Z,15.9
2018-03-19T14:38:28.746Z,16
2018-03-19T14:39:31.328Z,16
2018-03-19T14:40:34.172Z,15.8
2018-03-19T14:42:47.250Z,15.8
2018-03-19T14:43:50.146Z,15.7
2018-03-19T14:44:52.890Z,15.6
2018-03-19T14:45:55.782Z,15.7
2018-03-19T14:46:58.726Z,15.8
2018-03-19T14:48:02.399Z,15.5
2018-03-19T14:49:05.649Z,15.6
2018-03-19T14:50:09.009Z,15.6
2018-03-19T14:51:11.905Z,15.4
2018-03-19T14:52:16.844Z,15.4
2018-03-19T14:53:19.523Z,15.4
2018-03-19T14:54:22.171Z,15.2
2018-03-19T14:55:25.199Z,15.2
2018-03-19T14:56:28.161Z,15.1
2018-03-19T14:57:31.535Z,15
2018-03-19T14:58:34.201Z,15.1
2018-03-19T14:59:36.995Z,15
2018-03-19T15:00:40.114Z,14.9
2018-03-19T15:01:42.885Z,14.9
2018-03-19T15:02:45.804Z,15.1
2018-03-19T15:03:48.433Z,15.1
2018-03-19T15:04:51.221Z,15.1
2018-03-19T15:07:06.703Z,15
2018-03-19T15:08:09.388Z,15.1
2018-03-19T15:09:12.222Z,15.1
2018-03-19T15:10:15.342Z,15.1
2018-03-19T15:11:18.186Z,15
2018-03-19T15:12:20.830Z,14.9
2018-03-19T15:13:23.581Z,15.1
2018-03-19T15:14:26.351Z,15
2018-03-19T15:15:29.038Z,15
2018-03-19T15:16:31.623Z,14.9
2018-03-19T15:17:34.271Z,14.9
2018-03-19T15:18:37.743Z,14.9
2018-03-19T15:19:43.335Z,14.6
2018-03-19T15:20:46.157Z,14.7
2018-03-19T15:21:48.662Z,14.6
2018-03-19T15:22:51.381Z,14.6
2018-03-19T15:23:54.125Z,14.6
2018-03-19T15:24:56.799Z,14.5
2018-03-19T15:25:59.566Z,14.5
2018-03-19T15:27:02.324Z,14.3
2018-03-19T15:28:10.073Z,14.4
2018-03-19T15:29:13.439Z,14.4
2018-03-19T15:30:16.328Z,14.4
2018-03-19T15:31:26.710Z,14.4
2018-03-19T15:32:30.143Z,14.5
2018-03-19T15:33:32.898Z,14.5
2018-03-19T15:34:35.662Z,14.6
2018-03-19T15:35:38.428Z,14.5
2018-03-19T15:37:51.245Z,14.3
2018-03-19T15:38:54.024Z,14.4
2018-03-19T15:39:56.804Z,14.4
2018-03-19T15:40:59.368Z,14.5
2018-03-19T15:42:02.244Z,14.6
2018-03-19T15:43:06.410Z,14.8
2018-03-19T15:44:09.406Z,14.8
2018-03-19T15:45:12.259Z,15
2018-03-19T15:46:14.988Z,15.1
2018-03-19T15:47:17.905Z,15.1
2018-03-19T15:48:20.549Z,15.1
2018-03-19T15:49:23.351Z,15.2
2018-03-19T15:50:25.999Z,15.2
2018-03-19T15:51:28.973Z,15.4
2018-03-19T15:52:31.687Z,15.3
2018-03-19T15:53:34.355Z,15.5
2018-03-19T15:54:37.294Z,15.6
2018-03-19T15:55:40.135Z,15.7
2018-03-19T15:56:43.189Z,15.8
2018-03-19T15:57:46.187Z,16
2018-03-19T15:58:49.091Z,16
2018-03-19T15:59:51.815Z,16.3
2018-03-19T16:00:54.475Z,16.3
2018-03-19T16:01:57.456Z,16.3
2018-03-19T16:03:11.008Z,16.4
2018-03-19T16:04:13.784Z,16.6
2018-03-19T16:05:16.472Z,16.6
2018-03-19T16:06:19.215Z,16.6
2018-03-19T16:07:26.694Z,16.5
2018-03-19T16:08:29.302Z,16.6
2018-03-19T16:09:31.980Z,16.7
2018-03-19T16:10:34.666Z,16.6
2018-03-19T16:11:37.425Z,16.6
2018-03-19T16:12:40.167Z,16.6
2018-03-19T16:13:42.861Z,16.7
2018-03-19T16:14:45.500Z,16.5
2018-03-19T16:15:48.363Z,16.6
2018-03-19T16:16:50.887Z,16.5
2018-03-19T16:17:53.516Z,16.5
2018-03-19T16:18:56.303Z,16.4
2018-03-19T16:19:58.974Z,16.3
2018-03-19T16:21:01.731Z,16.3
2018-03-19T16:22:08.351Z,16
2018-03-19T16:23:11.030Z,16.1
2018-03-19T16:24:13.688Z,16.1
2018-03-19T16:25:16.581Z,16.1
2018-03-19T16:26:19.222Z,16
2018-03-19T16:27:21.865Z,16.1
2018-03-19T16:28:24.539Z,16
2018-03-19T16:29:27.263Z,15.9
2018-03-19T16:30:30.039Z,15.9
2018-03-19T16:31:32.658Z,15.9
2018-03-19T16:32:35.585Z,15.7
2018-03-19T16:33:39.044Z,15.6
2018-03-19T16:34:42.055Z,15.6
2018-03-19T16:35:44.757Z,15.4
2018-03-19T16:36:47.565Z,15.4
2018-03-19T16:37:50.171Z,15.4
2018-03-19T16:38:52.774Z,15.3
2018-03-19T16:39:55.406Z,15.3
2018-03-19T16:40:58.171Z,15.2
2018-03-19T16:42:01.232Z,15.1
2018-03-19T16:43:04.213Z,15
2018-03-19T16:44:07.016Z,14.9
2018-03-19T16:45:09.729Z,14.9
2018-03-19T16:46:12.638Z,14.9
2018-03-19T16:47:15.315Z,14.8
2018-03-19T16:48:18.175Z,14.7
2018-03-19T16:49:20.954Z,14.7
2018-03-19T16:50:23.650Z,14.4
2018-03-19T16:51:26.508Z,14.6
2018-03-19T16:52:29.276Z,14.5
2018-03-19T16:53:31.972Z,14.6
2018-03-19T16:54:35.749Z,14.6
2018-03-19T16:55:41.857Z,14.7
2018-03-19T16:56:44.934Z,14.6
2018-03-19T16:57:47.637Z,14.5
2018-03-19T16:58:50.334Z,14.5
2018-03-19T16:59:53.632Z,14.5
2018-03-19T17:00:56.632Z,14.5
2018-03-19T17:01:59.417Z,14.5
2018-03-19T17:03:02.231Z,14.5
2018-03-19T17:04:05.093Z,14.4
2018-03-19T17:05:08.181Z,14.4
2018-03-19T17:06:11.104Z,14.3
2018-03-19T17:07:14.263Z,14.1
2018-03-19T17:08:17.120Z,14.2
2018-03-19T17:09:19.854Z,14.1
2018-03-19T17:10:22.610Z,14.1
2018-03-19T17:11:25.267Z,14
2018-03-19T17:12:28.088Z,14
2018-03-19T17:13:30.739Z,14
2018-03-19T17:14:33.474Z,14